Crystal Symphony — C6MY5 — position and weather

sailwx.info

Track history (hours):
 
Tides and Currents Weather Stations Pressure Air Temp Water Temp Dewpoint Dewpoint Depression Visibility Wind Speed Wind Dir Waves Ship Positions

Crystal Symphony

Operator: Crystal Cruises

Last reported at 2020-Jul-07 18:02 UTC. Time now 2020-Jul-07 19:53 UTC.
Position N 01°19' E 104°04'.

Length 238 m; draft 8 m.

Type: Ship. MMSI: 309168000.

Date/timePositionNaut miles runAvg speedWind from/ knotsBaromVisibWave heightAir tempDewpointWater temp
2020-Jul-07 18:02N 01°19' E 104°04'0 0.0
2020-Jul-07 15:58N 01°19' E 104°04'0 0.1
2020-Jul-07 14:58N 01°19' E 104°04'0 0.0
2020-Jul-07 13:58N 01°19' E 104°04'0 0.0
2020-Jul-07 13:00N 01°19' E 104°04'0 0.0
2020-Jul-07 11:30N 01°19' E 104°04'0 0.0
2020-Jul-07 10:59N 01°19' E 104°04'0 0.0
2020-Jul-07 07:28N 01°19' E 104°04'0 0.0
2020-Jul-07 05:30N 01°19' E 104°04'0 0.0
2020-Jul-07 05:00N 01°19' E 104°04'0 0.0
2020-Jul-07 03:29N 01°19' E 104°04'0 0.0
2020-Jul-07 02:59N 01°19' E 104°04'0 0.0
2020-Jul-06 23:58N 01°19' E 104°04'0 0.0
2020-Jul-06 22:30N 01°19' E 104°04'0 0.0
2020-Jul-06 18:58N 01°19' E 104°04'0 0.0
2020-Jul-06 18:25N 01°19' E 104°04'0 0.0
2020-Jul-06 17:25N 01°19' E 104°04'0 0.2
2020-Jul-06 17:01N 01°19' E 104°04'0 0.0
2020-Jul-06 11:58N 01°19' E 104°04'0 0.0
2020-Jul-06 10:58N 01°19' E 104°04'0 0.0
2020-Jul-06 10:01N 01°19' E 104°04'0 0.0
2020-Jul-06 09:30N 01°19' E 104°04'0 0.0
2020-Jul-06 08:30N 01°19' E 104°04'0 0.0
2020-Jul-06 07:57N 01°19' E 104°04'0 0.0
2020-Jul-06 04:28N 01°19' E 104°04'0 0.0
2020-Jul-06 03:00N 01°19' E 104°04'0 0.0
2020-Jul-06 02:27N 01°19' E 104°04'0 0.0
2020-Jul-06 01:30N 01°19' E 104°04'0 0.0
2020-Jul-05 21:58N 01°19' E 104°04'0 0.0
2020-Jul-05 20:00N 01°19' E 104°04'0 0.0
2020-Jul-05 15:53N 01°19' E 104°04'0 0.0
2020-Jul-05 15:28N 01°19' E 104°04'0 0.0
2020-Jul-05 12:30N 01°19' E 104°04'0 0.0
2020-Jul-05 10:29N 01°19' E 104°04'0 0.0
2020-Jul-05 05:30N 01°19' E 104°04'0 0.0
2020-Jul-05 04:01N 01°19' E 104°04'7 7.0
2020-Jul-05 03:01N 01°24' E 103°58'8 7.7
2020-Jul-05 01:59N 01°28' E 103°52'  
2020-Jun-30 03:04N 01°28' E 103°50'0 0.6
2020-Jun-30 02:30N 01°28' E 103°50'15 7.4
2020-Jun-30 00:31N 01°22' E 104°03'  
Track history (hours):
 
Tides and Currents Weather Stations Pressure Air Temp Water Temp Dewpoint Dewpoint Depression Visibility Wind Speed Wind Dir Waves Ship Positions

Crystal Symphony

Operator: Crystal Cruises

Last reported at 2020-Jul-07 18:02 UTC. Time now 2020-Jul-07 19:53 UTC.
Position N 01°19' E 104°04'.

Length 238 m; draft 8 m.

Type: Ship. MMSI: 309168000.

Date/timePositionNaut miles runAvg speedWind from/ knotsBaromVisibWave heightAir tempDewpointWater temp
2020-Jul-07 18:02N 01°19' E 104°04'0 0.0
2020-Jul-07 15:58N 01°19' E 104°04'0 0.1
2020-Jul-07 14:58N 01°19' E 104°04'0 0.0
2020-Jul-07 13:58N 01°19' E 104°04'0 0.0
2020-Jul-07 13:00N 01°19' E 104°04'0 0.0
2020-Jul-07 11:30N 01°19' E 104°04'0 0.0
2020-Jul-07 10:59N 01°19' E 104°04'0 0.0
2020-Jul-07 07:28N 01°19' E 104°04'0 0.0
2020-Jul-07 05:30N 01°19' E 104°04'0 0.0
2020-Jul-07 05:00N 01°19' E 104°04'0 0.0
2020-Jul-07 03:29N 01°19' E 104°04'0 0.0
2020-Jul-07 02:59N 01°19' E 104°04'0 0.0
2020-Jul-06 23:58N 01°19' E 104°04'0 0.0
2020-Jul-06 22:30N 01°19' E 104°04'0 0.0
2020-Jul-06 18:58N 01°19' E 104°04'0 0.0
2020-Jul-06 18:25N 01°19' E 104°04'0 0.0
2020-Jul-06 17:25N 01°19' E 104°04'0 0.2
2020-Jul-06 17:01N 01°19' E 104°04'0 0.0
2020-Jul-06 11:58N 01°19' E 104°04'0 0.0
2020-Jul-06 10:58N 01°19' E 104°04'0 0.0
2020-Jul-06 10:01N 01°19' E 104°04'0 0.0
2020-Jul-06 09:30N 01°19' E 104°04'0 0.0
2020-Jul-06 08:30N 01°19' E 104°04'0 0.0
2020-Jul-06 07:57N 01°19' E 104°04'0 0.0
2020-Jul-06 04:28N 01°19' E 104°04'0 0.0
2020-Jul-06 03:00N 01°19' E 104°04'0 0.0
2020-Jul-06 02:27N 01°19' E 104°04'0 0.0
2020-Jul-06 01:30N 01°19' E 104°04'0 0.0
2020-Jul-05 21:58N 01°19' E 104°04'0 0.0
2020-Jul-05 20:00N 01°19' E 104°04'0 0.0
2020-Jul-05 15:53N 01°19' E 104°04'0 0.0
2020-Jul-05 15:28N 01°19' E 104°04'0 0.0
2020-Jul-05 12:30N 01°19' E 104°04'0 0.0
2020-Jul-05 10:29N 01°19' E 104°04'0 0.0
2020-Jul-05 05:30N 01°19' E 104°04'0 0.0
2020-Jul-05 04:01N 01°19' E 104°04'7 7.0
2020-Jul-05 03:01N 01°24' E 103°58'8 7.7
2020-Jul-05 01:59N 01°28' E 103°52'  
2020-Jun-30 03:04N 01°28' E 103°50'0 0.6
2020-Jun-30 02:30N 01°28' E 103°50'15 7.4
2020-Jun-30 00:31N 01°22' E 104°03'  

Dump ship's entire track history